Time;durP1;ratioP1;P1;durP2;ratioP2;P2;SDS_P1;SDS_P2;PMS_P1;PMS_P2;Temp;Humidity;BMP_temperature;BMP_pressure;BME280_temperature;BME280_humidity;BME280_pressure;Samples;Min_cycle;Max_cycle;Signal;HPM_P1;HPM_P2
2022/02/09 00:02:22;;;;;;;7.68;3.47;;;;;;;7.19;90.14;98082.56;5083628;28;20399;-63
2022/02/09 00:05:09;;;;;;;6.80;3.92;;;;;;;7.28;89.82;98084.13;5071772;28;20395;-61
2022/02/09 00:07:51;;;;;;;6.73;3.70;;;;;;;7.40;88.48;98086.16;5071607;28;20408;-63
2022/02/09 00:10:17;;;;;;;6.03;3.63;;;;;;;7.40;87.63;98078.34;5069024;28;20848;-65
2022/02/09 00:12:53;;;;;;;5.32;3.33;;;;;;;7.48;87.06;98080.88;5084417;28;20462;-62
2022/02/09 00:15:39;;;;;;;6.93;3.65;;;;;;;7.47;86.61;98068.81;5073254;28;20929;-65
2022/02/09 00:18:24;;;;;;;6.73;3.30;;;;;;;7.27;87.61;98079.88;5082724;28;20426;-62
2022/02/09 00:21:10;;;;;;;6.95;3.60;;;;;;;7.32;86.98;98080.19;5095193;28;20406;-62
2022/02/09 00:34:19;;;;;;;7.87;3.30;;;;;;;7.39;86.21;98081.94;5086961;28;20405;-62
2022/02/09 00:37:18;;;;;;;5.85;3.10;;;;;;;7.35;86.64;98083.28;5078110;28;20426;-64
2022/02/09 01:51:21;;;;;;;4.93;2.55;;;;;;;7.46;84.16;98048.94;5108204;28;20492;-62
2022/02/09 01:56:34;;;;;;;4.30;2.28;;;;;;;7.28;83.89;98039.78;5084862;28;20409;-61
2022/02/09 01:58:59;;;;;;;4.53;2.60;;;;;;;7.46;83.19;98032.50;5108186;28;20408;-60
2022/02/09 02:01:25;;;;;;;5.00;2.60;;;;;;;7.63;81.36;98030.53;5112863;28;20408;-61
2022/02/09 02:03:52;;;;;;;3.83;2.40;;;;;;;7.45;80.97;98031.69;5093674;28;20802;-61
2022/02/09 02:06:19;;;;;;;3.20;2.13;;;;;;;7.45;81.34;98042.09;5100902;28;20396;-61
2022/02/09 02:08:48;;;;;;;4.50;2.53;;;;;;;7.48;80.83;98030.50;5102939;28;20459;-60
2022/02/09 02:16:42;;;;;;;3.63;2.27;;;;;;;7.28;80.41;98021.53;5093441;28;20406;-61
2022/02/09 02:19:28;;;;;;;3.80;2.30;;;;;;;7.37;79.76;98010.06;5106107;28;20906;-61
2022/02/09 02:37:07;;;;;;;4.53;2.13;;;;;;;7.34;78.66;98002.59;5093624;28;20394;-62
2022/02/09 02:40:07;;;;;;;4.18;2.10;;;;;;;7.26;79.48;97992.22;5092695;28;20421;-63
2022/02/09 02:59:16;;;;;;;3.17;1.87;;;;;;;7.12;80.10;97985.97;5113051;28;20415;-61
2022/02/09 03:17:46;;;;;;;4.45;2.28;;;;;;;7.35;78.84;97989.38;5061039;28;20753;-60
2022/02/09 03:30:57;;;;;;;4.00;1.80;;;;;;;7.39;78.00;97975.00;5104524;28;20394;-60
2022/02/09 03:57:09;;;;;;;2.15;1.75;;;;;;;7.28;79.66;97965.00;5110433;28;20400;-61
2022/02/09 03:59:35;;;;;;;3.80;2.10;;;;;;;7.25;79.82;97965.31;5112071;28;20465;-61
2022/02/09 04:02:03;;;;;;;3.37;1.80;;;;;;;7.28;80.02;97964.19;5095877;28;20391;-61
2022/02/09 04:04:28;;;;;;;2.88;1.98;;;;;;;7.28;79.59;97961.56;5112013;28;20388;-60
2022/02/09 04:06:54;;;;;;;3.00;1.83;;;;;;;7.47;78.66;97956.66;5111773;28;20468;-61
2022/02/09 04:09:24;;;;;;;4.40;2.10;;;;;;;7.29;78.95;97964.00;5109787;28;20400;-63
2022/02/09 04:14:36;;;;;;;3.05;2.10;;;;;;;7.29;79.37;97958.78;5091924;28;20473;-61
2022/02/09 04:17:18;;;;;;;3.20;2.25;;;;;;;7.30;79.11;97954.38;5104161;28;20392;-62
2022/02/09 04:20:07;;;;;;;4.35;2.33;;;;;;;7.41;78.96;97961.78;5110822;28;20404;-61
2022/02/09 04:38:54;;;;;;;2.13;1.70;;;;;;;7.34;78.21;97958.25;5067841;28;20474;-60
2022/02/09 04:42:22;;;;;;;1.70;1.60;;;;;;;7.40;78.46;97952.34;5091389;28;20812;-61
2022/02/09 04:49:55;;;;;;;2.10;1.60;;;;;;;7.59;77.65;97951.81;5111877;28;20410;-61
2022/02/09 04:55:38;;;;;;;1.77;1.50;;;;;;;7.52;78.20;97950.91;5100777;28;20384;-61
2022/02/09 04:57:45;;;;;;;2.55;1.67;;;;;;;7.37;78.82;97947.47;5084226;28;20402;-63
2022/02/09 05:24:19;;;;;;;3.67;2.10;;;;;;;7.12;79.78;97948.69;5094779;28;20389;-61
2022/02/09 05:29:21;;;;;;;5.68;2.15;;;;;;;7.08;79.98;97950.81;5114780;28;20471;-62
2022/02/09 05:31:47;;;;;;;3.00;2.30;;;;;;;7.44;78.65;97950.97;5114119;28;20475;-61
2022/02/09 05:34:13;;;;;;;3.80;2.20;;;;;;;7.17;78.64;97947.16;5096324;28;20484;-60
2022/02/09 05:36:39;;;;;;;3.47;2.10;;;;;;;7.16;78.58;97955.97;5114234;28;20811;-61
2022/02/09 05:39:04;;;;;;;4.13;2.00;;;;;;;7.11;78.32;97947.88;5097466;28;20396;-59
2022/02/09 05:41:31;;;;;;;4.50;2.17;;;;;;;7.28;77.86;97949.34;5097547;28;20406;-61
2022/02/09 05:43:56;;;;;;;6.30;2.30;;;;;;;7.19;78.21;97947.78;5093808;28;20418;-60
2022/02/09 05:51:31;;;;;;;4.05;2.10;;;;;;;7.19;79.66;97947.00;5099812;28;20489;-57
2022/02/09 05:56:42;;;;;;;3.38;1.70;;;;;;;7.38;78.11;97941.25;5106350;28;20398;-56
2022/02/09 06:01:43;;;;;;;3.10;1.55;;;;;;;7.55;77.98;97944.50;5097633;28;20410;-60
2022/02/09 06:04:09;;;;;;;1.45;1.27;;;;;;;7.41;78.38;97948.75;5105770;28;20727;-60
2022/02/09 06:06:34;;;;;;;1.95;1.52;;;;;;;7.35;79.21;97946.84;5113189;28;20400;-61
2022/02/09 06:09:01;;;;;;;2.80;1.37;;;;;;;7.38;79.17;97943.88;5112929;28;20424;-61
2022/02/09 06:11:47;;;;;;;3.72;1.60;;;;;;;7.43;79.16;97950.16;5092831;28;20487;-60
2022/02/09 06:14:22;;;;;;;2.33;1.60;;;;;;;7.37;79.10;97956.09;5113782;28;20392;-59
2022/02/09 06:19:46;;;;;;;4.97;2.17;;;;;;;7.15;78.79;97958.75;5112877;28;20442;-60
2022/02/09 06:22:11;;;;;;;4.07;2.10;;;;;;;7.01;78.47;97958.53;5104385;28;20398;-59
2022/02/09 06:24:39;;;;;;;2.67;2.17;;;;;;;7.19;77.55;97953.00;5104760;28;20480;-60
2022/02/09 06:27:05;;;;;;;4.00;2.28;;;;;;;6.99;79.02;97950.06;5112922;28;20475;-61
2022/02/09 06:29:31;;;;;;;2.58;2.30;;;;;;;6.99;79.48;97965.72;5102551;28;20472;-61
2022/02/09 06:31:56;;;;;;;5.45;2.45;;;;;;;7.16;78.38;97961.19;5111553;28;20400;-60
2022/02/09 06:34:22;;;;;;;3.17;2.30;;;;;;;6.99;79.31;97957.06;5087185;28;20863;-61
2022/02/09 06:36:56;;;;;;;5.33;2.43;;;;;;;7.10;78.60;97960.09;5092705;28;20389;-59
2022/02/09 06:39:22;;;;;;;3.78;2.10;;;;;;;7.08;78.10;97963.84;5102862;28;20400;-59
2022/02/09 06:41:47;;;;;;;5.07;2.27;;;;;;;6.98;78.58;97969.28;5112363;28;20387;-60
2022/02/09 06:44:13;;;;;;;4.70;2.27;;;;;;;7.00;79.51;97958.69;5109936;28;20435;-61
2022/02/09 06:46:39;;;;;;;5.22;2.17;;;;;;;7.00;78.91;97967.34;5112684;28;20743;-61
2022/02/09 06:49:08;;;;;;;3.85;2.20;;;;;;;7.00;79.09;97958.69;5112555;28;20796;-60
2022/02/09 06:51:37;;;;;;;6.10;2.60;;;;;;;6.90;78.96;97961.56;5111731;28;20412;-59
2022/02/09 06:54:12;;;;;;;5.57;2.53;;;;;;;6.97;78.38;97965.06;5104014;28;20393;-59
2022/02/09 06:59:28;;;;;;;6.32;2.90;;;;;;;6.91;77.32;97964.97;5112427;28;20678;-59
2022/02/09 07:02:04;;;;;;;4.40;2.50;;;;;;;6.50;77.75;97961.81;5111699;28;20396;-58
2022/02/09 07:04:32;;;;;;;4.32;2.53;;;;;;;6.45;78.41;97958.91;5102437;28;20402;-60
2022/02/09 07:06:57;;;;;;;4.43;2.50;;;;;;;6.39;77.97;97960.41;5105321;28;20458;-61
2022/02/09 07:09:24;;;;;;;4.67;2.60;;;;;;;6.44;77.50;97955.50;5107189;28;20849;-58
2022/02/09 07:11:51;;;;;;;5.53;2.78;;;;;;;6.54;77.01;97953.47;5071374;28;20396;-60
2022/02/09 07:14:21;;;;;;;5.88;2.67;;;;;;;6.63;76.17;97965.47;5086137;28;20423;-62
2022/02/09 07:16:47;;;;;;;5.07;2.97;;;;;;;6.50;76.91;97959.22;5112194;28;20888;-63
2022/02/09 07:19:12;;;;;;;4.67;2.73;;;;;;;6.52;77.44;97959.84;5111744;28;20396;-61
2022/02/09 07:21:39;;;;;;;6.23;3.13;;;;;;;6.59;76.68;97961.59;5111359;28;20954;-61
2022/02/09 07:24:07;;;;;;;6.43;3.03;;;;;;;6.54;76.67;97961.28;5106825;28;20489;-62
2022/02/09 07:29:11;;;;;;;8.50;3.42;;;;;;;7.05;73.86;97951.16;5103354;28;20479;-59
2022/02/09 07:31:37;;;;;;;6.03;2.97;;;;;;;6.96;73.61;97954.84;5096522;28;20396;-57
2022/02/09 07:34:03;;;;;;;7.15;3.20;;;;;;;6.84;74.24;97954.44;5102176;28;20386;-58
2022/02/09 07:36:31;;;;;;;6.90;3.10;;;;;;;7.17;73.21;97949.78;5091649;28;20394;-58
2022/02/09 07:38:58;;;;;;;6.18;3.03;;;;;;;7.19;72.69;97950.38;5107293;28;20388;-58
2022/02/09 07:41:23;;;;;;;5.90;2.83;;;;;;;7.32;71.83;97955.00;5108547;28;20462;-59
2022/02/09 07:44:04;;;;;;;8.43;3.10;;;;;;;7.57;71.00;97951.19;5091868;28;20879;-57
2022/02/09 07:49:38;;;;;;;6.65;2.80;;;;;;;7.79;69.63;97954.72;5092277;28;20814;-59
2022/02/09 07:52:12;;;;;;;6.35;2.80;;;;;;;7.97;68.56;97949.91;5109857;28;20403;-60
2022/02/09 07:54:38;;;;;;;4.72;2.58;;;;;;;7.22;71.44;97938.81;5111901;28;20419;-62
2022/02/09 07:57:04;;;;;;;4.93;2.60;;;;;;;8.01;74.24;97945.97;5110912;28;20884;-61
2022/02/09 07:59:29;;;;;;;4.60;2.80;;;;;;;7.97;69.32;97944.69;5071729;28;21101;-59
2022/02/09 08:01:55;;;;;;;3.20;2.40;;;;;;;8.06;67.83;97932.38;5101342;28;20501;-59
2022/02/09 08:04:20;;;;;;;4.22;2.40;;;;;;;8.06;68.19;97934.97;5074886;28;20409;-58
2022/02/09 08:06:47;;;;;;;6.40;2.50;;;;;;;8.21;67.38;97936.56;5091487;28;20398;-58
2022/02/09 08:32:53;;;;;;;3.58;2.58;;;;;;;8.46;67.79;97926.66;5091138;28;20397;-58
2022/02/09 08:35:18;;;;;;;5.95;2.45;;;;;;;8.53;67.53;97922.28;5092150;28;20390;-58
2022/02/09 08:37:44;;;;;;;4.50;2.60;;;;;;;8.55;67.87;97919.50;5094410;28;20551;-58
2022/02/09 08:40:13;;;;;;;4.72;2.33;;;;;;;8.63;67.86;97924.59;5102480;28;20408;-58
2022/02/09 08:42:39;;;;;;;4.90;2.50;;;;;;;8.76;67.57;97920.31;5115167;28;20454;-59
2022/02/09 08:45:08;;;;;;;4.60;2.40;;;;;;;8.66;68.22;97914.59;5096492;28;20396;-56
2022/02/09 08:47:34;;;;;;;4.20;2.20;;;;;;;8.59;68.00;97905.03;5112408;28;20403;-59
2022/02/09 08:50:00;;;;;;;5.25;2.40;;;;;;;8.51;69.03;97910.41;5094344;28;20389;-58
2022/02/09 08:52:25;;;;;;;6.05;2.40;;;;;;;8.51;68.50;97902.56;5112657;28;20415;-57
2022/02/09 08:54:52;;;;;;;5.20;2.70;;;;;;;8.67;68.78;97904.94;5113445;28;20396;-57
2022/02/09 08:57:22;;;;;;;4.03;2.50;;;;;;;8.72;67.79;97899.97;5099180;28;20388;-59
2022/02/09 08:59:49;;;;;;;3.63;2.35;;;;;;;8.65;68.71;97907.72;5111665;28;20408;-55
2022/02/09 09:02:18;;;;;;;7.10;3.28;;;;;;;8.66;68.42;97903.31;5107955;28;20457;-59
2022/02/09 09:04:56;;;;;;;6.53;3.58;;;;;;;8.80;67.44;97904.25;5079581;28;20764;-59
2022/02/09 09:07:25;;;;;;;6.03;3.03;;;;;;;8.64;67.73;97902.69;5100338;28;20444;-59
2022/02/09 10:30:55;;;;;;;4.30;2.67;;;;;;;9.41;68.95;97881.78;5109848;28;20389;-60
2022/02/09 10:34:12;;;;;;;4.38;2.45;;;;;;;9.63;67.16;97865.00;5103548;28;20900;-57
2022/02/09 10:37:00;;;;;;;5.28;2.28;;;;;;;9.99;65.90;97864.75;5102758;28;20392;-57
2022/02/09 10:39:42;;;;;;;4.72;2.53;;;;;;;9.91;65.86;97857.88;5112070;28;20780;-54
2022/02/09 10:42:21;;;;;;;6.90;2.55;;;;;;;9.94;66.64;97854.88;5077864;28;20477;-56
2022/02/09 10:44:51;;;;;;;4.25;2.80;;;;;;;9.86;65.92;97855.03;5092418;28;20410;-56
2022/02/09 10:47:21;;;;;;;5.97;2.83;;;;;;;9.95;66.47;97847.81;5099082;28;20448;-53
2022/02/09 10:52:51;;;;;;;5.70;2.70;;;;;;;10.10;65.79;97840.59;5102412;28;20406;-57
2022/02/09 10:55:27;;;;;;;4.05;2.55;;;;;;;10.15;65.69;97834.78;5084337;28;20388;-54
2022/02/09 10:57:54;;;;;;;3.13;2.10;;;;;;;10.45;63.46;97824.78;5091857;28;20450;-54
2022/02/09 11:00:20;;;;;;;3.00;1.85;;;;;;;10.22;62.97;97819.91;5107463;28;21006;-54
2022/02/09 11:02:47;;;;;;;4.43;2.20;;;;;;;10.39;63.34;97819.34;5095123;28;20412;-57
2022/02/09 11:05:12;;;;;;;4.23;2.53;;;;;;;10.32;64.54;97813.28;5092458;28;20617;-52
2022/02/09 11:07:38;;;;;;;4.20;2.40;;;;;;;10.40;64.15;97810.47;5109501;28;20796;-58
2022/02/09 11:10:05;;;;;;;4.28;3.10;;;;;;;10.11;64.27;97804.75;5102845;28;20436;-55
2022/02/09 11:12:30;;;;;;;4.47;2.23;;;;;;;10.47;63.26;97800.00;5091893;28;20420;-57
2022/02/09 11:14:56;;;;;;;6.67;2.33;;;;;;;10.34;63.61;97792.94;5073704;28;20386;-58
2022/02/09 11:17:22;;;;;;;6.20;2.53;;;;;;;10.45;63.76;97780.25;5106880;28;20843;-58
2022/02/09 11:19:51;;;;;;;3.67;2.63;;;;;;;10.40;63.74;97784.28;5102978;28;20437;-56
2022/02/09 11:22:22;;;;;;;5.47;2.85;;;;;;;10.23;65.02;97780.44;5091902;28;20429;-58
2022/02/09 11:25:20;;;;;;;4.85;2.50;;;;;;;10.39;64.40;97784.47;5094133;28;20394;-58
2022/02/09 11:27:54;;;;;;;3.65;2.38;;;;;;;10.53;63.62;97778.25;5092719;28;20397;-57
2022/02/09 11:30:32;;;;;;;5.20;2.70;;;;;;;10.58;63.45;97775.00;5091460;28;20424;-55
2022/02/09 11:35:42;;;;;;;3.75;2.53;;;;;;;10.53;63.21;97773.00;5092066;28;20397;-52
2022/02/09 11:43:57;;;;;;;4.77;2.30;;;;;;;10.73;63.05;97771.16;5028406;28;20831;-57
2022/02/09 11:46:57;;;;;;;3.13;2.05;;;;;;;10.95;62.59;97766.50;5084415;28;20447;-57
2022/02/09 11:52:43;;;;;;;2.72;2.05;;;;;;;11.07;62.04;97764.88;5077050;28;20744;-56
2022/02/09 12:12:04;;;;;;;7.47;2.47;;;;;;;11.47;61.94;97735.88;5075018;28;20416;-57
2022/02/09 12:25:44;;;;;;;4.00;1.70;;;;;;;11.55;61.62;97718.06;5095601;28;20481;-57
2022/02/09 12:28:21;;;;;;;2.35;1.50;;;;;;;11.45;62.03;97709.81;5096211;28;20401;-60
2022/02/09 12:30:47;;;;;;;3.38;1.40;;;;;;;11.59;61.90;97708.72;5062693;28;20773;-60
2022/02/09 12:33:20;;;;;;;3.17;1.40;;;;;;;11.59;62.29;97697.44;5102937;28;20425;-59
2022/02/09 12:35:46;;;;;;;2.25;1.75;;;;;;;11.64;62.04;97700.25;5101259;28;20400;-60
2022/02/09 12:38:11;;;;;;;3.30;1.90;;;;;;;11.66;62.38;97695.56;5115018;28;20398;-59
2022/02/09 12:40:38;;;;;;;3.57;1.70;;;;;;;11.75;61.96;97696.97;5114880;28;21019;-59
2022/02/09 12:43:06;;;;;;;2.67;1.60;;;;;;;11.74;61.74;97697.19;5115156;28;20380;-59
2022/02/09 12:45:35;;;;;;;3.47;1.70;;;;;;;11.92;61.49;97697.28;5085180;28;20923;-59
2022/02/09 12:48:02;;;;;;;3.55;1.65;;;;;;;11.70;62.18;97686.28;5114405;28;20388;-60
2022/02/09 12:50:34;;;;;;;2.30;1.58;;;;;;;11.85;61.73;97683.38;5114543;28;20391;-58
2022/02/09 12:53:04;;;;;;;5.72;1.75;;;;;;;11.99;61.61;97677.00;5091091;28;20405;-58
2022/02/09 12:55:32;;;;;;;2.50;1.80;;;;;;;12.14;61.13;97682.78;5108786;28;20948;-61
2022/02/09 12:58:04;;;;;;;2.43;1.50;;;;;;;12.00;61.07;97676.00;5107920;28;20405;-58
2022/02/09 13:00:42;;;;;;;2.58;1.50;;;;;;;12.19;60.69;97682.13;5094427;28;20504;-55
2022/02/09 13:03:18;;;;;;;2.85;1.42;;;;;;;12.31;60.80;97675.16;5109768;28;20483;-59
2022/02/09 13:05:49;;;;;;;1.67;1.30;;;;;;;12.26;60.61;97675.78;5078360;28;20909;-60
2022/02/09 13:08:23;;;;;;;1.67;1.40;;;;;;;12.34;60.09;97672.09;5101584;28;20495;-60
2022/02/09 13:10:48;;;;;;;2.22;1.40;;;;;;;12.26;60.62;97670.53;5093498;28;20441;-61
2022/02/09 13:16:34;;;;;;;5.60;1.30;;;;;;;12.27;60.39;97656.38;5094328;28;20827;-60
2022/02/09 14:51:18;;;;;;;2.50;1.30;;;;;;;12.45;59.21;97584.59;5097526;28;20407;-58
2022/02/09 14:52:52;;;;;;;2.22;1.20;;;;;;;12.32;59.44;97587.38;5100959;28;20380;-58
2022/02/09 14:55:28;;;;;;;1.40;1.30;;;;;;;12.23;59.70;97592.09;5112964;28;20437;-55
2022/02/09 14:58:05;;;;;;;1.93;1.43;;;;;;;12.32;59.07;97588.16;5112241;28;20776;-57
2022/02/09 15:00:34;;;;;;;3.00;1.40;;;;;;;12.31;59.38;97581.34;5111853;28;20815;-57
2022/02/09 15:03:20;;;;;;;4.60;1.90;;;;;;;12.33;59.05;97589.78;5111290;28;20453;-58
2022/02/09 15:08:37;;;;;;;4.07;1.98;;;;;;;12.29;59.35;97579.91;5097968;28;20415;-57
2022/02/09 15:16:47;;;;;;;11.07;5.37;;;;;;;12.27;59.27;97588.03;5092221;28;20400;-55
2022/02/09 15:20:11;;;;;;;1.90;1.40;;;;;;;12.34;59.22;97577.44;5099339;28;20854;-58
2022/02/09 15:22:10;;;;;;;1.27;1.15;;;;;;;12.32;59.38;97585.53;5087987;28;20393;-57
2022/02/09 15:24:41;;;;;;;1.77;1.25;;;;;;;12.45;58.61;97584.59;5105708;28;20432;-61
2022/02/09 15:27:13;;;;;;;2.50;1.10;;;;;;;12.53;58.50;97584.34;5111588;28;20397;-57
2022/02/09 15:29:39;;;;;;;1.48;1.10;;;;;;;12.59;58.42;97580.03;5111293;28;20392;-57
2022/02/09 15:32:33;;;;;;;1.80;1.40;;;;;;;12.39;58.37;97574.97;5111452;28;20388;-58
2022/02/09 15:35:23;;;;;;;3.38;2.10;;;;;;;12.28;58.83;97571.22;5104753;28;20739;-58
2022/02/09 15:37:53;;;;;;;4.35;2.67;;;;;;;12.39;58.60;97569.69;5091115;28;20869;-58
2022/02/09 15:43:06;;;;;;;1.40;1.07;;;;;;;12.10;59.30;97576.47;5111153;28;20420;-59
2022/02/09 15:56:45;;;;;;;2.75;1.33;;;;;;;11.81;61.83;97572.69;5111124;28;20960;-59
2022/02/09 16:05:36;;;;;;;2.72;1.60;;;;;;;11.77;61.73;97575.94;5091780;28;20392;-59
2022/02/09 16:09:43;;;;;;;2.53;1.63;;;;;;;11.49;63.17;97571.88;5095622;28;20436;-58
2022/02/09 16:22:52;;;;;;;3.42;2.15;;;;;;;11.23;63.84;97564.19;5111456;28;20437;-56
2022/02/09 16:37:19;;;;;;;3.83;1.90;;;;;;;10.96;65.33;97558.28;4989126;28;20644;-57
2022/02/09 16:45:02;;;;;;;3.10;2.08;;;;;;;10.75;66.89;97559.38;5109011;28;20480;-60
2022/02/09 16:52:35;;;;;;;2.47;2.13;;;;;;;10.56;67.64;97552.41;5090814;28;20475;-55
2022/02/09 17:15:27;;;;;;;2.70;2.33;;;;;;;10.11;69.91;97548.84;5097602;28;20556;-60
2022/02/09 17:19:24;;;;;;;3.45;2.25;;;;;;;9.75;71.81;97564.22;5102915;28;20937;-59
2022/02/09 17:21:49;;;;;;;6.07;2.50;;;;;;;9.79;71.16;97560.19;5094555;28;20429;-61
2022/02/09 17:24:15;;;;;;;4.47;2.40;;;;;;;9.56;72.13;97563.19;5094465;28;20394;-61
2022/02/09 17:26:41;;;;;;;4.35;2.50;;;;;;;9.77;72.08;97562.19;5094646;28;20405;-60
2022/02/09 17:29:06;;;;;;;3.83;2.20;;;;;;;9.88;71.99;97565.00;5094309;28;20386;-62
2022/02/09 17:31:53;;;;;;;4.43;2.30;;;;;;;9.73;72.13;97558.38;5109387;28;20761;-59
2022/02/09 17:56:09;;;;;;;3.70;2.83;;;;;;;9.68;72.83;97556.34;5094006;28;20767;-60
2022/02/09 17:58:37;;;;;;;3.00;2.50;;;;;;;9.60;73.15;97559.16;5094383;28;20761;-60
2022/02/09 18:01:03;;;;;;;4.03;2.60;;;;;;;9.64;73.19;97549.88;5102811;28;20416;-58
2022/02/09 18:03:28;;;;;;;6.80;2.40;;;;;;;9.70;72.48;97554.31;5093499;28;20474;-59
2022/02/09 18:05:57;;;;;;;3.80;2.30;;;;;;;9.70;72.59;97550.91;5109716;28;20975;-60
2022/02/09 18:11:38;;;;;;;4.90;2.47;;;;;;;9.10;75.04;97552.66;5104691;28;20499;-63
2022/02/09 18:14:12;;;;;;;3.90;2.33;;;;;;;9.34;74.38;97553.91;5100878;28;20892;-59
2022/02/09 18:43:33;;;;;;;4.47;3.10;;;;;;;9.30;74.29;97563.19;5101777;28;20407;-64
2022/02/09 18:46:58;;;;;;;6.67;2.90;;;;;;;9.51;73.56;97568.22;5104935;28;20394;-64
2022/02/09 18:57:17;;;;;;;3.95;2.20;;;;;;;9.05;75.33;97552.44;5112228;28;20760;-62
2022/02/09 19:02:35;;;;;;;4.75;2.70;;;;;;;9.03;75.36;97549.22;5112507;28;20403;-63
2022/02/09 19:05:16;;;;;;;4.68;2.92;;;;;;;8.77;76.68;97549.97;5082265;28;20431;-66
2022/02/09 19:08:08;;;;;;;4.88;2.92;;;;;;;8.58;77.16;97542.88;5093945;28;20521;-64
2022/02/09 19:16:14;;;;;;;4.55;2.85;;;;;;;8.28;79.03;97555.34;5104314;28;20391;-65
2022/02/09 19:31:56;;;;;;;4.15;2.80;;;;;;;8.16;79.92;97539.41;5099757;28;20397;-66
2022/02/09 19:48:02;;;;;;;7.80;3.45;;;;;;;8.22;80.90;97532.59;5094194;28;20393;-66
2022/02/09 19:53:41;;;;;;;5.28;3.28;;;;;;;8.63;79.67;97532.63;5110969;28;20379;-66
2022/02/09 19:56:08;;;;;;;5.95;3.03;;;;;;;8.26;79.33;97534.63;5109817;28;20416;-72
2022/02/09 20:01:04;;;;;;;5.13;3.20;;;;;;;8.14;78.32;97530.94;5107988;28;20527;-65
2022/02/09 20:03:30;;;;;;;3.72;2.97;;;;;;;8.00;78.78;97524.06;5090847;28;20406;-66
2022/02/09 20:05:55;;;;;;;3.77;2.33;;;;;;;8.23;74.89;97519.38;5100635;28;20427;-66
2022/02/09 20:08:21;;;;;;;4.30;2.15;;;;;;;8.20;72.67;97526.75;5091459;28;21101;-66
2022/02/09 20:10:46;;;;;;;2.43;2.00;;;;;;;8.07;71.75;97519.69;5074765;28;20409;-66
2022/02/09 20:13:12;;;;;;;4.97;2.70;;;;;;;7.97;72.66;97521.03;5091327;28;20821;-66
2022/02/09 20:15:37;;;;;;;2.80;2.28;;;;;;;7.83;73.03;97514.91;5100186;28;20397;-66
2022/02/09 20:18:03;;;;;;;3.40;2.10;;;;;;;7.73;72.78;97517.06;5093407;28;20396;-64
2022/02/09 20:20:30;;;;;;;4.03;2.30;;;;;;;7.65;72.83;97519.78;5092970;28;20408;-64
2022/02/09 20:22:58;;;;;;;3.28;2.35;;;;;;;7.82;71.32;97516.72;5089955;28;20389;-63
2022/02/09 20:25:24;;;;;;;3.63;2.20;;;;;;;7.89;69.52;97508.94;5090235;28;20390;-64
2022/02/09 20:27:52;;;;;;;3.60;2.10;;;;;;;7.93;67.76;97507.53;5091484;28;20413;-63
2022/02/09 20:30:22;;;;;;;3.38;2.25;;;;;;;7.81;67.10;97507.25;5092331;28;20885;-63
2022/02/09 20:32:52;;;;;;;3.63;2.20;;;;;;;7.78;67.26;97514.69;5073919;28;20746;-64
2022/02/09 20:35:20;;;;;;;4.72;2.30;;;;;;;7.58;67.20;97522.34;5096344;28;20904;-61
2022/02/09 20:37:49;;;;;;;2.57;2.37;;;;;;;7.76;65.99;97516.66;5095712;28;20478;-63
2022/02/09 20:40:23;;;;;;;3.10;2.40;;;;;;;7.61;66.39;97521.19;5107185;28;20465;-63
2022/02/09 20:42:53;;;;;;;4.20;2.50;;;;;;;7.51;66.11;97518.91;5098178;28;20512;-62
2022/02/09 20:45:34;;;;;;;2.50;2.30;;;;;;;7.30;66.77;97524.16;5115364;28;20388;-63
2022/02/09 20:48:04;;;;;;;3.83;2.45;;;;;;;7.39;65.83;97521.22;5097301;28;20385;-63
2022/02/09 20:50:30;;;;;;;4.65;2.80;;;;;;;7.43;66.14;97519.03;5111067;28;20463;-63
2022/02/09 20:52:56;;;;;;;4.15;2.75;;;;;;;7.52;65.74;97518.69;5095293;28;20386;-63
2022/02/09 20:55:22;;;;;;;3.75;2.60;;;;;;;7.15;66.54;97526.81;5094902;28;20409;-68
2022/02/09 20:57:49;;;;;;;4.43;2.83;;;;;;;7.26;66.57;97528.09;5076329;28;20774;-63
2022/02/09 21:00:22;;;;;;;3.85;2.80;;;;;;;7.28;66.31;97526.94;5095332;28;20460;-62
2022/02/09 21:02:56;;;;;;;5.20;3.10;;;;;;;7.37;65.73;97527.59;5094462;28;20833;-63
2022/02/09 21:08:10;;;;;;;3.40;2.65;;;;;;;7.15;66.45;97518.19;5101472;28;20773;-63
2022/02/09 21:10:46;;;;;;;3.95;2.90;;;;;;;7.21;66.32;97517.44;5099994;28;20528;-63
2022/02/09 21:13:27;;;;;;;5.13;2.97;;;;;;;7.16;66.40;97523.22;5076286;28;20889;-63
2022/02/09 21:16:09;;;;;;;5.20;3.10;;;;;;;7.10;67.06;97513.53;5097821;28;20398;-62
2022/02/09 21:19:27;;;;;;;3.65;2.80;;;;;;;7.14;66.51;97513.94;5113062;28;20395;-63
2022/02/09 21:22:11;;;;;;;5.80;3.38;;;;;;;6.81;67.81;97509.22;5098825;28;20413;-63
2022/02/09 21:32:16;;;;;;;5.20;3.50;;;;;;;6.82;67.59;97508.25;5092656;28;20398;-63
2022/02/09 21:56:21;;;;;;;4.40;3.30;;;;;;;6.36;69.30;97501.69;5086498;28;20401;-63
2022/02/09 22:01:35;;;;;;;4.57;3.50;;;;;;;6.36;69.53;97486.06;5092575;28;20410;-63
2022/02/09 22:28:18;;;;;;;6.38;3.90;;;;;;;6.29;69.33;97464.38;5097071;28;20900;-63
2022/02/09 22:54:53;;;;;;;4.60;3.50;;;;;;;6.17;68.29;97441.44;5109450;28;20411;-62
2022/02/09 22:57:27;;;;;;;5.80;3.90;;;;;;;6.17;67.68;97451.84;5104057;28;20874;-62
2022/02/09 23:00:02;;;;;;;4.22;3.30;;;;;;;5.99;68.65;97451.41;5092298;28;20418;-64
2022/02/09 23:02:34;;;;;;;4.80;3.40;;;;;;;6.06;68.66;97448.91;5112020;28;21658;-61
2022/02/09 23:10:15;;;;;;;5.03;3.58;;;;;;;6.25;66.67;97441.31;5089924;28;20781;-62
2022/02/09 23:12:47;;;;;;;5.28;3.55;;;;;;;6.35;66.62;97440.22;5076171;28;20404;-65
2022/02/09 23:21:13;;;;;;;5.45;3.53;;;;;;;5.88;67.75;97438.84;5111080;28;20736;-64
2022/02/09 23:56:13;;;;;;;5.57;4.05;;;;;;;5.47;71.14;97432.44;5112224;28;20400;-63
